sensor_id;sensor_type;location;lat;lon;timestamp;P1;durP1;ratioP1;P2;durP2;ratioP2
57643;SDS011;43474;46.510;6.686;2022-12-17T00:01:01;100.68;;;94.47;;
57643;SDS011;43474;46.510;6.686;2022-12-17T00:03:45;109.65;;;102.82;;
57643;SDS011;43474;46.510;6.686;2022-12-17T00:06:29;636.67;;;376.58;;
57643;SDS011;43474;46.510;6.686;2022-12-17T00:09:13;118.15;;;111.25;;
57643;SDS011;43474;46.510;6.686;2022-12-17T00:11:58;148.70;;;139.57;;
57643;SDS011;43474;46.510;6.686;2022-12-17T00:14:42;149.93;;;141.75;;
57643;SDS011;43474;46.510;6.686;2022-12-17T00:17:26;62.38;;;57.25;;
57643;SDS011;43474;46.510;6.686;2022-12-17T00:20:10;63.88;;;59.42;;
57643;SDS011;43474;46.510;6.686;2022-12-17T00:23:01;103.55;;;96.75;;
57643;SDS011;43474;46.510;6.686;2022-12-17T00:25:51;176.73;;;164.60;;
57643;SDS011;43474;46.510;6.686;2022-12-17T00:28:39;138.52;;;130.90;;
57643;SDS011;43474;46.510;6.686;2022-12-17T00:31:26;160.05;;;151.23;;
57643;SDS011;43474;46.510;6.686;2022-12-17T00:34:13;114.55;;;108.93;;
57643;SDS011;43474;46.510;6.686;2022-12-17T00:36:57;213.52;;;200.75;;
57643;SDS011;43474;46.510;6.686;2022-12-17T00:39:42;227.20;;;212.32;;
57643;SDS011;43474;46.510;6.686;2022-12-17T00:42:26;115.00;;;106.90;;
57643;SDS011;43474;46.510;6.686;2022-12-17T00:45:10;76.95;;;71.05;;
57643;SDS011;43474;46.510;6.686;2022-12-17T00:47:55;113.45;;;106.60;;
57643;SDS011;43474;46.510;6.686;2022-12-17T00:50:40;180.73;;;165.45;;
57643;SDS011;43474;46.510;6.686;2022-12-17T00:53:24;109.80;;;103.80;;
57643;SDS011;43474;46.510;6.686;2022-12-17T00:56:09;75.75;;;70.00;;
57643;SDS011;43474;46.510;6.686;2022-12-17T00:58:53;95.78;;;90.25;;
57643;SDS011;43474;46.510;6.686;2022-12-17T01:01:37;85.47;;;80.03;;
57643;SDS011;43474;46.510;6.686;2022-12-17T01:04:21;95.95;;;89.28;;
57643;SDS011;43474;46.510;6.686;2022-12-17T01:07:05;169.20;;;156.82;;
57643;SDS011;43474;46.510;6.686;2022-12-17T01:09:50;115.30;;;109.10;;
57643;SDS011;43474;46.510;6.686;2022-12-17T01:12:34;64.97;;;59.97;;
57643;SDS011;43474;46.510;6.686;2022-12-17T01:15:18;176.10;;;163.77;;
57643;SDS011;43474;46.510;6.686;2022-12-17T01:18:19;329.13;;;306.60;;
57643;SDS011;43474;46.510;6.686;2022-12-17T01:21:04;69.75;;;64.82;;
57643;SDS011;43474;46.510;6.686;2022-12-17T01:23:48;208.63;;;197.25;;
57643;SDS011;43474;46.510;6.686;2022-12-17T01:26:32;86.22;;;80.97;;
57643;SDS011;43474;46.510;6.686;2022-12-17T01:29:17;145.90;;;135.68;;
57643;SDS011;43474;46.510;6.686;2022-12-17T01:32:01;58.63;;;53.83;;
57643;SDS011;43474;46.510;6.686;2022-12-17T01:34:45;146.40;;;136.77;;
57643;SDS011;43474;46.510;6.686;2022-12-17T01:37:29;51.28;;;47.63;;
57643;SDS011;43474;46.510;6.686;2022-12-17T01:40:13;101.25;;;95.03;;
57643;SDS011;43474;46.510;6.686;2022-12-17T01:42:57;96.85;;;89.97;;
57643;SDS011;43474;46.510;6.686;2022-12-17T01:45:42;77.78;;;72.78;;
57643;SDS011;43474;46.510;6.686;2022-12-17T01:48:36;53.65;;;49.03;;
57643;SDS011;43474;46.510;6.686;2022-12-17T01:51:24;274.58;;;258.95;;
57643;SDS011;43474;46.510;6.686;2022-12-17T01:54:09;75.50;;;70.80;;
57643;SDS011;43474;46.510;6.686;2022-12-17T01:56:54;70.40;;;65.35;;
57643;SDS011;43474;46.510;6.686;2022-12-17T02:02:28;79.85;;;75.00;;
57643;SDS011;43474;46.510;6.686;2022-12-17T02:05:13;68.53;;;64.18;;
57643;SDS011;43474;46.510;6.686;2022-12-17T02:13:54;132.35;;;123.90;;
57643;SDS011;43474;46.510;6.686;2022-12-17T02:16:50;88.20;;;83.18;;
57643;SDS011;43474;46.510;6.686;2022-12-17T02:23:03;50.70;;;46.28;;
57643;SDS011;43474;46.510;6.686;2022-12-17T02:26:10;67.32;;;62.28;;
57643;SDS011;43474;46.510;6.686;2022-12-17T02:28:59;53.30;;;49.30;;
57643;SDS011;43474;46.510;6.686;2022-12-17T02:31:46;169.88;;;158.80;;
57643;SDS011;43474;46.510;6.686;2022-12-17T02:34:41;210.32;;;198.55;;
57643;SDS011;43474;46.510;6.686;2022-12-17T02:37:27;100.78;;;94.97;;
57643;SDS011;43474;46.510;6.686;2022-12-17T02:40:11;548.38;;;294.65;;
57643;SDS011;43474;46.510;6.686;2022-12-17T02:42:55;93.97;;;87.50;;
57643;SDS011;43474;46.510;6.686;2022-12-17T02:45:40;61.17;;;57.28;;
57643;SDS011;43474;46.510;6.686;2022-12-17T02:48:25;1099.82;;;594.72;;
57643;SDS011;43474;46.510;6.686;2022-12-17T02:51:09;1066.28;;;562.10;;
57643;SDS011;43474;46.510;6.686;2022-12-17T02:53:54;73.53;;;69.38;;
57643;SDS011;43474;46.510;6.686;2022-12-17T02:56:38;179.57;;;169.32;;
57643;SDS011;43474;46.510;6.686;2022-12-17T02:59:23;127.80;;;120.50;;
57643;SDS011;43474;46.510;6.686;2022-12-17T03:02:07;1551.78;;;798.45;;
57643;SDS011;43474;46.510;6.686;2022-12-17T03:04:52;54.20;;;51.28;;
57643;SDS011;43474;46.510;6.686;2022-12-17T03:07:36;1511.97;;;761.13;;
57643;SDS011;43474;46.510;6.686;2022-12-17T03:10:20;1999.90;;;999.90;;
57643;SDS011;43474;46.510;6.686;2022-12-17T03:13:04;138.52;;;130.80;;
57643;SDS011;43474;46.510;6.686;2022-12-17T03:15:48;1025.28;;;523.67;;
57643;SDS011;43474;46.510;6.686;2022-12-17T03:18:32;1072.72;;;566.88;;
57643;SDS011;43474;46.510;6.686;2022-12-17T03:21:17;1063.35;;;558.03;;
57643;SDS011;43474;46.510;6.686;2022-12-17T03:24:01;58.58;;;54.50;;
57643;SDS011;43474;46.510;6.686;2022-12-17T03:26:45;1038.95;;;535.58;;
57643;SDS011;43474;46.510;6.686;2022-12-17T03:29:29;70.80;;;66.28;;
57643;SDS011;43474;46.510;6.686;2022-12-17T03:32:13;57.35;;;53.28;;
57643;SDS011;43474;46.510;6.686;2022-12-17T03:34:57;1999.90;;;999.90;;
57643;SDS011;43474;46.510;6.686;2022-12-17T03:37:41;75.55;;;71.30;;
57643;SDS011;43474;46.510;6.686;2022-12-17T03:40:25;1047.97;;;544.40;;
57643;SDS011;43474;46.510;6.686;2022-12-17T03:43:09;45.13;;;41.85;;
57643;SDS011;43474;46.510;6.686;2022-12-17T03:45:56;1999.90;;;999.90;;
57643;SDS011;43474;46.510;6.686;2022-12-17T03:48:40;35.60;;;33.00;;
57643;SDS011;43474;46.510;6.686;2022-12-17T03:51:24;149.93;;;140.60;;
57643;SDS011;43474;46.510;6.686;2022-12-17T03:54:08;1519.63;;;768.45;;
57643;SDS011;43474;46.510;6.686;2022-12-17T03:56:53;1511.57;;;760.72;;
57643;SDS011;43474;46.510;6.686;2022-12-17T03:59:37;43.75;;;41.40;;
57643;SDS011;43474;46.510;6.686;2022-12-17T04:02:21;1511.47;;;760.63;;
57643;SDS011;43474;46.510;6.686;2022-12-17T04:05:05;522.50;;;270.95;;
57643;SDS011;43474;46.510;6.686;2022-12-17T04:07:50;1999.90;;;999.90;;
57643;SDS011;43474;46.510;6.686;2022-12-17T04:10:34;1999.90;;;999.90;;
57643;SDS011;43474;46.510;6.686;2022-12-17T04:13:18;1999.90;;;999.90;;
57643;SDS011;43474;46.510;6.686;2022-12-17T04:16:02;94.10;;;86.15;;
57643;SDS011;43474;46.510;6.686;2022-12-17T04:18:46;1999.90;;;999.90;;
57643;SDS011;43474;46.510;6.686;2022-12-17T04:21:30;1015.78;;;514.70;;
57643;SDS011;43474;46.510;6.686;2022-12-17T04:24:14;1509.53;;;758.92;;
57643;SDS011;43474;46.510;6.686;2022-12-17T04:26:58;25.02;;;23.40;;
57643;SDS011;43474;46.510;6.686;2022-12-17T04:29:42;49.05;;;46.13;;
57643;SDS011;43474;46.510;6.686;2022-12-17T04:32:26;39.60;;;36.80;;
57643;SDS011;43474;46.510;6.686;2022-12-17T04:35:10;1999.90;;;999.90;;
57643;SDS011;43474;46.510;6.686;2022-12-17T04:37:55;1999.90;;;999.90;;
57643;SDS011;43474;46.510;6.686;2022-12-17T04:40:39;1507.82;;;757.25;;
57643;SDS011;43474;46.510;6.686;2022-12-17T04:43:23;1999.90;;;999.90;;
57643;SDS011;43474;46.510;6.686;2022-12-17T04:46:07;1999.90;;;999.90;;
57643;SDS011;43474;46.510;6.686;2022-12-17T04:48:52;1999.90;;;999.90;;
57643;SDS011;43474;46.510;6.686;2022-12-17T04:51:36;1999.90;;;999.90;;
57643;SDS011;43474;46.510;6.686;2022-12-17T04:54:20;141.32;;;129.68;;
57643;SDS011;43474;46.510;6.686;2022-12-17T04:57:04;1508.85;;;758.17;;
57643;SDS011;43474;46.510;6.686;2022-12-17T04:59:48;1505.35;;;754.95;;
57643;SDS011;43474;46.510;6.686;2022-12-17T05:02:32;1013.63;;;512.58;;
57643;SDS011;43474;46.510;6.686;2022-12-17T05:05:17;1509.30;;;757.63;;
57643;SDS011;43474;46.510;6.686;2022-12-17T05:08:01;1999.90;;;999.90;;
57643;SDS011;43474;46.510;6.686;2022-12-17T05:11:04;1999.90;;;999.90;;
57643;SDS011;43474;46.510;6.686;2022-12-17T05:13:48;1999.90;;;999.90;;
57643;SDS011;43474;46.510;6.686;2022-12-17T05:16:33;1999.90;;;999.90;;
57643;SDS011;43474;46.510;6.686;2022-12-17T05:19:17;1999.90;;;999.90;;
57643;SDS011;43474;46.510;6.686;2022-12-17T05:22:01;1507.57;;;756.97;;
57643;SDS011;43474;46.510;6.686;2022-12-17T05:24:45;1999.90;;;999.90;;
57643;SDS011;43474;46.510;6.686;2022-12-17T05:27:29;1503.50;;;753.25;;
57643;SDS011;43474;46.510;6.686;2022-12-17T05:30:13;1999.90;;;999.90;;
57643;SDS011;43474;46.510;6.686;2022-12-17T05:33:01;1999.90;;;999.90;;
57643;SDS011;43474;46.510;6.686;2022-12-17T05:35:46;1999.90;;;999.90;;
57643;SDS011;43474;46.510;6.686;2022-12-17T05:38:30;1509.40;;;758.88;;
57643;SDS011;43474;46.510;6.686;2022-12-17T05:41:14;1999.90;;;999.90;;
57643;SDS011;43474;46.510;6.686;2022-12-17T05:43:58;1999.90;;;999.90;;
57643;SDS011;43474;46.510;6.686;2022-12-17T05:46:42;1999.90;;;999.90;;
57643;SDS011;43474;46.510;6.686;2022-12-17T05:49:26;1999.90;;;999.90;;
57643;SDS011;43474;46.510;6.686;2022-12-17T05:52:10;1505.78;;;755.40;;
57643;SDS011;43474;46.510;6.686;2022-12-17T05:54:54;1999.90;;;999.90;;
57643;SDS011;43474;46.510;6.686;2022-12-17T05:57:39;1999.90;;;999.90;;
57643;SDS011;43474;46.510;6.686;2022-12-17T06:00:23;1999.90;;;999.90;;
57643;SDS011;43474;46.510;6.686;2022-12-17T06:03:07;1999.90;;;999.90;;
57643;SDS011;43474;46.510;6.686;2022-12-17T06:05:52;1999.90;;;999.90;;
57643;SDS011;43474;46.510;6.686;2022-12-17T06:08:37;1508.88;;;758.22;;
57643;SDS011;43474;46.510;6.686;2022-12-17T06:11:22;1999.90;;;999.90;;
57643;SDS011;43474;46.510;6.686;2022-12-17T06:14:22;1999.90;;;999.90;;
57643;SDS011;43474;46.510;6.686;2022-12-17T06:17:06;1999.90;;;999.90;;
57643;SDS011;43474;46.510;6.686;2022-12-17T06:19:50;1999.90;;;999.90;;
57643;SDS011;43474;46.510;6.686;2022-12-17T06:22:34;1999.90;;;999.90;;
57643;SDS011;43474;46.510;6.686;2022-12-17T06:25:19;1999.90;;;999.90;;
57643;SDS011;43474;46.510;6.686;2022-12-17T06:28:03;1999.90;;;999.90;;
57643;SDS011;43474;46.510;6.686;2022-12-17T06:30:50;1999.90;;;999.90;;
57643;SDS011;43474;46.510;6.686;2022-12-17T06:33:34;1999.90;;;999.90;;
57643;SDS011;43474;46.510;6.686;2022-12-17T06:36:19;1999.90;;;999.90;;
57643;SDS011;43474;46.510;6.686;2022-12-17T06:39:03;1999.90;;;999.90;;
57643;SDS011;43474;46.510;6.686;2022-12-17T06:41:47;1504.50;;;754.25;;
57643;SDS011;43474;46.510;6.686;2022-12-17T06:44:31;1999.90;;;999.90;;
57643;SDS011;43474;46.510;6.686;2022-12-17T06:47:15;1999.90;;;999.90;;
57643;SDS011;43474;46.510;6.686;2022-12-17T06:50:00;1999.90;;;999.90;;
57643;SDS011;43474;46.510;6.686;2022-12-17T06:52:44;1999.90;;;999.90;;
57643;SDS011;43474;46.510;6.686;2022-12-17T06:55:28;1999.90;;;999.90;;
57643;SDS011;43474;46.510;6.686;2022-12-17T06:58:12;1999.90;;;999.90;;
57643;SDS011;43474;46.510;6.686;2022-12-17T07:00:56;1999.90;;;999.90;;
57643;SDS011;43474;46.510;6.686;2022-12-17T07:03:40;1999.90;;;999.90;;
57643;SDS011;43474;46.510;6.686;2022-12-17T07:06:24;1999.90;;;999.90;;
57643;SDS011;43474;46.510;6.686;2022-12-17T07:09:09;1999.90;;;999.90;;
57643;SDS011;43474;46.510;6.686;2022-12-17T07:11:53;1999.90;;;999.90;;
57643;SDS011;43474;46.510;6.686;2022-12-17T07:14:37;1999.90;;;999.90;;
57643;SDS011;43474;46.510;6.686;2022-12-17T07:17:21;1999.90;;;999.90;;
57643;SDS011;43474;46.510;6.686;2022-12-17T07:20:05;1999.90;;;999.90;;
57643;SDS011;43474;46.510;6.686;2022-12-17T07:22:53;1999.90;;;999.90;;
57643;SDS011;43474;46.510;6.686;2022-12-17T07:25:38;1999.90;;;999.90;;
57643;SDS011;43474;46.510;6.686;2022-12-17T07:28:23;1999.90;;;999.90;;
57643;SDS011;43474;46.510;6.686;2022-12-17T07:31:07;1999.90;;;999.90;;
57643;SDS011;43474;46.510;6.686;2022-12-17T07:33:51;1999.90;;;999.90;;
57643;SDS011;43474;46.510;6.686;2022-12-17T07:36:35;1999.90;;;999.90;;
57643;SDS011;43474;46.510;6.686;2022-12-17T07:39:19;1999.90;;;999.90;;
57643;SDS011;43474;46.510;6.686;2022-12-17T07:42:03;1999.90;;;999.90;;
57643;SDS011;43474;46.510;6.686;2022-12-17T07:44:47;1999.90;;;999.90;;
57643;SDS011;43474;46.510;6.686;2022-12-17T07:47:31;1999.90;;;999.90;;
57643;SDS011;43474;46.510;6.686;2022-12-17T07:50:15;1999.90;;;999.90;;
57643;SDS011;43474;46.510;6.686;2022-12-17T07:53:00;1999.90;;;999.90;;
57643;SDS011;43474;46.510;6.686;2022-12-17T07:55:45;1999.90;;;999.90;;
57643;SDS011;43474;46.510;6.686;2022-12-17T07:58:29;1999.90;;;999.90;;
57643;SDS011;43474;46.510;6.686;2022-12-17T08:01:14;1999.90;;;999.90;;
57643;SDS011;43474;46.510;6.686;2022-12-17T08:03:58;1999.90;;;999.90;;
57643;SDS011;43474;46.510;6.686;2022-12-17T08:06:42;1999.90;;;999.90;;
57643;SDS011;43474;46.510;6.686;2022-12-17T08:09:26;1999.90;;;999.90;;
57643;SDS011;43474;46.510;6.686;2022-12-17T08:12:10;1999.90;;;999.90;;
57643;SDS011;43474;46.510;6.686;2022-12-17T08:14:54;1999.90;;;999.90;;
57643;SDS011;43474;46.510;6.686;2022-12-17T08:17:38;1999.90;;;999.90;;
57643;SDS011;43474;46.510;6.686;2022-12-17T08:20:22;1999.90;;;999.90;;
57643;SDS011;43474;46.510;6.686;2022-12-17T08:23:07;1999.90;;;999.90;;
57643;SDS011;43474;46.510;6.686;2022-12-17T08:25:51;1999.90;;;999.90;;
57643;SDS011;43474;46.510;6.686;2022-12-17T08:28:35;1999.90;;;999.90;;
57643;SDS011;43474;46.510;6.686;2022-12-17T08:31:19;1999.90;;;999.90;;
57643;SDS011;43474;46.510;6.686;2022-12-17T08:34:23;1999.90;;;999.90;;
57643;SDS011;43474;46.510;6.686;2022-12-17T08:37:07;1999.90;;;999.90;;
57643;SDS011;43474;46.510;6.686;2022-12-17T08:39:52;1999.90;;;999.90;;
57643;SDS011;43474;46.510;6.686;2022-12-17T08:42:36;1999.90;;;999.90;;
57643;SDS011;43474;46.510;6.686;2022-12-17T08:45:20;1999.90;;;999.90;;
57643;SDS011;43474;46.510;6.686;2022-12-17T08:48:04;1999.90;;;999.90;;
57643;SDS011;43474;46.510;6.686;2022-12-17T08:50:49;1999.90;;;999.90;;
57643;SDS011;43474;46.510;6.686;2022-12-17T08:53:33;1999.90;;;999.90;;
57643;SDS011;43474;46.510;6.686;2022-12-17T08:56:17;1999.90;;;999.90;;
57643;SDS011;43474;46.510;6.686;2022-12-17T08:59:01;1999.90;;;999.90;;
57643;SDS011;43474;46.510;6.686;2022-12-17T09:01:47;1999.90;;;999.90;;
57643;SDS011;43474;46.510;6.686;2022-12-17T09:04:32;1999.90;;;999.90;;
57643;SDS011;43474;46.510;6.686;2022-12-17T09:07:16;1999.90;;;999.90;;
57643;SDS011;43474;46.510;6.686;2022-12-17T09:10:00;1999.90;;;999.90;;
57643;SDS011;43474;46.510;6.686;2022-12-17T09:12:45;1999.90;;;999.90;;
57643;SDS011;43474;46.510;6.686;2022-12-17T09:15:29;1999.90;;;999.90;;
57643;SDS011;43474;46.510;6.686;2022-12-17T09:18:20;1999.90;;;999.90;;
57643;SDS011;43474;46.510;6.686;2022-12-17T09:21:05;1999.90;;;999.90;;
57643;SDS011;43474;46.510;6.686;2022-12-17T09:23:51;1999.90;;;999.90;;
57643;SDS011;43474;46.510;6.686;2022-12-17T09:26:35;1999.90;;;999.90;;
57643;SDS011;43474;46.510;6.686;2022-12-17T09:29:19;1999.90;;;999.90;;
57643;SDS011;43474;46.510;6.686;2022-12-17T09:32:04;1999.90;;;999.90;;
57643;SDS011;43474;46.510;6.686;2022-12-17T09:34:48;1999.90;;;999.90;;
57643;SDS011;43474;46.510;6.686;2022-12-17T09:37:32;1999.90;;;999.90;;
57643;SDS011;43474;46.510;6.686;2022-12-17T09:40:17;1999.90;;;999.90;;
57643;SDS011;43474;46.510;6.686;2022-12-17T09:43:11;1999.90;;;999.90;;
57643;SDS011;43474;46.510;6.686;2022-12-17T09:46:19;1999.90;;;999.90;;
57643;SDS011;43474;46.510;6.686;2022-12-17T09:49:14;1999.90;;;999.90;;
57643;SDS011;43474;46.510;6.686;2022-12-17T09:52:03;1999.90;;;999.90;;
57643;SDS011;43474;46.510;6.686;2022-12-17T09:55:23;1999.90;;;999.90;;
57643;SDS011;43474;46.510;6.686;2022-12-17T09:58:21;1999.90;;;999.90;;
57643;SDS011;43474;46.510;6.686;2022-12-17T10:01:14;1999.90;;;999.90;;
57643;SDS011;43474;46.510;6.686;2022-12-17T10:04:01;1999.90;;;999.90;;
57643;SDS011;43474;46.510;6.686;2022-12-17T10:06:47;1999.90;;;999.90;;
57643;SDS011;43474;46.510;6.686;2022-12-17T10:09:32;1999.90;;;999.90;;
57643;SDS011;43474;46.510;6.686;2022-12-17T10:12:18;1999.90;;;999.90;;
57643;SDS011;43474;46.510;6.686;2022-12-17T10:15:04;1999.90;;;999.90;;
57643;SDS011;43474;46.510;6.686;2022-12-17T10:17:50;1999.90;;;999.90;;
57643;SDS011;43474;46.510;6.686;2022-12-17T10:20:37;1999.90;;;999.90;;
57643;SDS011;43474;46.510;6.686;2022-12-17T10:23:26;1999.90;;;999.90;;
57643;SDS011;43474;46.510;6.686;2022-12-17T10:26:36;1999.90;;;999.90;;
57643;SDS011;43474;46.510;6.686;2022-12-17T10:29:21;1999.90;;;999.90;;
57643;SDS011;43474;46.510;6.686;2022-12-17T10:32:16;1999.90;;;999.90;;
57643;SDS011;43474;46.510;6.686;2022-12-17T10:37:59;1999.90;;;999.90;;
57643;SDS011;43474;46.510;6.686;2022-12-17T10:40:43;1999.90;;;999.90;;
57643;SDS011;43474;46.510;6.686;2022-12-17T10:43:30;536.92;;;284.95;;
57643;SDS011;43474;46.510;6.686;2022-12-17T10:46:26;1999.90;;;999.90;;
57643;SDS011;43474;46.510;6.686;2022-12-17T10:49:14;1999.90;;;999.90;;
57643;SDS011;43474;46.510;6.686;2022-12-17T10:52:13;1999.90;;;999.90;;
57643;SDS011;43474;46.510;6.686;2022-12-17T10:55:19;1999.90;;;999.90;;
57643;SDS011;43474;46.510;6.686;2022-12-17T10:58:10;1999.90;;;999.90;;
57643;SDS011;43474;46.510;6.686;2022-12-17T11:01:00;1999.90;;;999.90;;
57643;SDS011;43474;46.510;6.686;2022-12-17T11:03:52;1999.90;;;999.90;;
57643;SDS011;43474;46.510;6.686;2022-12-17T11:06:45;1999.90;;;999.90;;
57643;SDS011;43474;46.510;6.686;2022-12-17T11:09:44;1999.90;;;999.90;;
57643;SDS011;43474;46.510;6.686;2022-12-17T11:12:40;1999.90;;;999.90;;
57643;SDS011;43474;46.510;6.686;2022-12-17T11:15:38;1999.90;;;999.90;;
57643;SDS011;43474;46.510;6.686;2022-12-17T11:18:32;1999.90;;;999.90;;
57643;SDS011;43474;46.510;6.686;2022-12-17T11:21:26;1999.90;;;999.90;;
57643;SDS011;43474;46.510;6.686;2022-12-17T11:24:20;1999.90;;;999.90;;
57643;SDS011;43474;46.510;6.686;2022-12-17T11:27:09;1503.10;;;752.90;;
57643;SDS011;43474;46.510;6.686;2022-12-17T11:30:00;1999.90;;;999.90;;
57643;SDS011;43474;46.510;6.686;2022-12-17T11:38:48;1999.90;;;999.90;;
57643;SDS011;43474;46.510;6.686;2022-12-17T11:47:51;1999.90;;;999.90;;
57643;SDS011;43474;46.510;6.686;2022-12-17T11:53:51;1999.90;;;999.90;;
57643;SDS011;43474;46.510;6.686;2022-12-17T11:56:48;1999.90;;;999.90;;
57643;SDS011;43474;46.510;6.686;2022-12-17T12:05:50;1999.90;;;999.90;;
57643;SDS011;43474;46.510;6.686;2022-12-17T12:11:50;1999.90;;;999.90;;
57643;SDS011;43474;46.510;6.686;2022-12-17T12:18:08;1999.90;;;999.90;;
57643;SDS011;43474;46.510;6.686;2022-12-17T12:24:23;1999.90;;;999.90;;
57643;SDS011;43474;46.510;6.686;2022-12-17T12:31:01;1999.90;;;999.90;;
57643;SDS011;43474;46.510;6.686;2022-12-17T12:33:47;1999.90;;;999.90;;
57643;SDS011;43474;46.510;6.686;2022-12-17T12:36:36;1999.90;;;999.90;;
57643;SDS011;43474;46.510;6.686;2022-12-17T12:39:37;1999.90;;;999.90;;
57643;SDS011;43474;46.510;6.686;2022-12-17T12:42:32;1999.90;;;999.90;;
57643;SDS011;43474;46.510;6.686;2022-12-17T12:48:51;1999.90;;;999.90;;
57643;SDS011;43474;46.510;6.686;2022-12-17T12:51:43;1999.90;;;999.90;;
57643;SDS011;43474;46.510;6.686;2022-12-17T12:54:29;1999.90;;;999.90;;
57643;SDS011;43474;46.510;6.686;2022-12-17T12:57:34;1999.90;;;999.90;;
57643;SDS011;43474;46.510;6.686;2022-12-17T13:00:38;1999.90;;;999.90;;
57643;SDS011;43474;46.510;6.686;2022-12-17T13:03:36;1999.90;;;999.90;;
57643;SDS011;43474;46.510;6.686;2022-12-17T13:11:40;1999.90;;;999.90;;
57643;SDS011;43474;46.510;6.686;2022-12-17T13:17:01;1999.90;;;999.90;;
57643;SDS011;43474;46.510;6.686;2022-12-17T13:24:44;1999.90;;;999.90;;
57643;SDS011;43474;46.510;6.686;2022-12-17T13:27:30;1999.90;;;999.90;;
57643;SDS011;43474;46.510;6.686;2022-12-17T13:29:58;1999.90;;;999.90;;
57643;SDS011;43474;46.510;6.686;2022-12-17T13:43:37;1999.90;;;999.90;;
57643;SDS011;43474;46.510;6.686;2022-12-17T13:46:15;1999.90;;;999.90;;
57643;SDS011;43474;46.510;6.686;2022-12-17T13:51:20;1999.90;;;999.90;;
57643;SDS011;43474;46.510;6.686;2022-12-17T13:53:50;1999.90;;;999.90;;
57643;SDS011;43474;46.510;6.686;2022-12-17T13:56:38;1999.90;;;999.90;;
57643;SDS011;43474;46.510;6.686;2022-12-17T13:59:04;1999.90;;;999.90;;
57643;SDS011;43474;46.510;6.686;2022-12-17T14:01:30;1999.90;;;999.90;;
57643;SDS011;43474;46.510;6.686;2022-12-17T14:03:57;1999.90;;;999.90;;
57643;SDS011;43474;46.510;6.686;2022-12-17T14:06:25;1999.90;;;999.90;;
57643;SDS011;43474;46.510;6.686;2022-12-17T14:08:55;1999.90;;;999.90;;
57643;SDS011;43474;46.510;6.686;2022-12-17T14:11:22;1999.90;;;999.90;;
57643;SDS011;43474;46.510;6.686;2022-12-17T14:14:07;1999.90;;;999.90;;
57643;SDS011;43474;46.510;6.686;2022-12-17T14:16:40;1999.90;;;999.90;;
57643;SDS011;43474;46.510;6.686;2022-12-17T14:19:07;1999.90;;;999.90;;
57643;SDS011;43474;46.510;6.686;2022-12-17T14:21:33;1999.90;;;999.90;;
57643;SDS011;43474;46.510;6.686;2022-12-17T14:24:01;1999.90;;;999.90;;
57643;SDS011;43474;46.510;6.686;2022-12-17T14:26:28;1999.90;;;999.90;;
57643;SDS011;43474;46.510;6.686;2022-12-17T14:28:54;1999.90;;;999.90;;
57643;SDS011;43474;46.510;6.686;2022-12-17T14:31:22;1999.90;;;999.90;;
57643;SDS011;43474;46.510;6.686;2022-12-17T14:34:02;1999.90;;;999.90;;
57643;SDS011;43474;46.510;6.686;2022-12-17T14:36:31;1999.90;;;999.90;;
57643;SDS011;43474;46.510;6.686;2022-12-17T14:39:04;1999.90;;;999.90;;
57643;SDS011;43474;46.510;6.686;2022-12-17T14:41:40;1999.90;;;999.90;;
57643;SDS011;43474;46.510;6.686;2022-12-17T14:44:25;1999.90;;;999.90;;
57643;SDS011;43474;46.510;6.686;2022-12-17T14:46:54;1999.90;;;999.90;;
57643;SDS011;43474;46.510;6.686;2022-12-17T14:55:19;1999.90;;;999.90;;
57643;SDS011;43474;46.510;6.686;2022-12-17T14:58:06;1999.90;;;999.90;;
57643;SDS011;43474;46.510;6.686;2022-12-17T15:00:50;1999.90;;;999.90;;
57643;SDS011;43474;46.510;6.686;2022-12-17T15:03:19;1032.68;;;529.75;;
57643;SDS011;43474;46.510;6.686;2022-12-17T15:06:03;1999.90;;;999.90;;
57643;SDS011;43474;46.510;6.686;2022-12-17T15:08:35;1999.90;;;999.90;;
57643;SDS011;43474;46.510;6.686;2022-12-17T15:11:05;1999.90;;;999.90;;
57643;SDS011;43474;46.510;6.686;2022-12-17T15:13:31;1999.90;;;999.90;;
57643;SDS011;43474;46.510;6.686;2022-12-17T15:15:57;1999.90;;;999.90;;
57643;SDS011;43474;46.510;6.686;2022-12-17T15:18:23;1999.90;;;999.90;;
57643;SDS011;43474;46.510;6.686;2022-12-17T15:20:48;1999.90;;;999.90;;
57643;SDS011;43474;46.510;6.686;2022-12-17T15:23:15;1999.90;;;999.90;;
57643;SDS011;43474;46.510;6.686;2022-12-17T15:25:43;1999.90;;;999.90;;
57643;SDS011;43474;46.510;6.686;2022-12-17T15:28:09;1999.90;;;999.90;;
57643;SDS011;43474;46.510;6.686;2022-12-17T15:30:35;1999.90;;;999.90;;
57643;SDS011;43474;46.510;6.686;2022-12-17T15:33:01;1999.90;;;999.90;;
57643;SDS011;43474;46.510;6.686;2022-12-17T15:35:28;1999.90;;;999.90;;
57643;SDS011;43474;46.510;6.686;2022-12-17T15:37:54;1999.90;;;999.90;;
57643;SDS011;43474;46.510;6.686;2022-12-17T15:40:19;1999.90;;;999.90;;
57643;SDS011;43474;46.510;6.686;2022-12-17T15:42:45;1999.90;;;999.90;;
57643;SDS011;43474;46.510;6.686;2022-12-17T15:45:29;1999.90;;;999.90;;
57643;SDS011;43474;46.510;6.686;2022-12-17T15:47:55;1999.90;;;999.90;;
57643;SDS011;43474;46.510;6.686;2022-12-17T15:50:21;1999.90;;;999.90;;
57643;SDS011;43474;46.510;6.686;2022-12-17T15:52:46;1999.90;;;999.90;;
57643;SDS011;43474;46.510;6.686;2022-12-17T15:55:12;1999.90;;;999.90;;
57643;SDS011;43474;46.510;6.686;2022-12-17T15:57:38;1999.90;;;999.90;;
57643;SDS011;43474;46.510;6.686;2022-12-17T16:00:04;1999.90;;;999.90;;
57643;SDS011;43474;46.510;6.686;2022-12-17T16:02:30;1999.90;;;999.90;;
57643;SDS011;43474;46.510;6.686;2022-12-17T16:04:56;1999.90;;;999.90;;
57643;SDS011;43474;46.510;6.686;2022-12-17T16:07:22;1999.90;;;999.90;;
57643;SDS011;43474;46.510;6.686;2022-12-17T16:09:48;1999.90;;;999.90;;
57643;SDS011;43474;46.510;6.686;2022-12-17T16:12:13;1999.90;;;999.90;;
57643;SDS011;43474;46.510;6.686;2022-12-17T16:14:39;1999.90;;;999.90;;
57643;SDS011;43474;46.510;6.686;2022-12-17T16:17:04;1999.90;;;999.90;;
57643;SDS011;43474;46.510;6.686;2022-12-17T16:19:30;1999.90;;;999.90;;
57643;SDS011;43474;46.510;6.686;2022-12-17T16:21:55;1999.90;;;999.90;;
57643;SDS011;43474;46.510;6.686;2022-12-17T16:24:21;187.88;;;176.27;;
57643;SDS011;43474;46.510;6.686;2022-12-17T16:26:46;63.40;;;58.10;;
57643;SDS011;43474;46.510;6.686;2022-12-17T16:29:12;52.10;;;47.90;;
57643;SDS011;43474;46.510;6.686;2022-12-17T16:31:38;58.92;;;53.30;;
57643;SDS011;43474;46.510;6.686;2022-12-17T16:34:10;551.53;;;298.30;;
57643;SDS011;43474;46.510;6.686;2022-12-17T16:36:37;78.20;;;72.35;;
57643;SDS011;43474;46.510;6.686;2022-12-17T16:39:03;54.60;;;50.47;;
57643;SDS011;43474;46.510;6.686;2022-12-17T16:41:29;148.25;;;136.75;;
57643;SDS011;43474;46.510;6.686;2022-12-17T16:43:55;47.30;;;44.05;;
57643;SDS011;43474;46.510;6.686;2022-12-17T16:46:25;1045.30;;;542.08;;